sensor_id;sensor_type;location;lat;lon;timestamp;P1;durP1;ratioP1;P2;durP2;ratioP2
47219;SDS011;32961;51.936;4.788;2023-02-28T00:01:28;4.95;;;2.42;;
47219;SDS011;32961;51.936;4.788;2023-02-28T00:03:56;8.93;;;2.72;;
47219;SDS011;32961;51.936;4.788;2023-02-28T00:06:26;4.13;;;2.20;;
47219;SDS011;32961;51.936;4.788;2023-02-28T00:08:54;6.13;;;2.35;;
47219;SDS011;32961;51.936;4.788;2023-02-28T00:11:22;4.22;;;2.33;;
47219;SDS011;32961;51.936;4.788;2023-02-28T00:13:49;10.10;;;2.53;;
47219;SDS011;32961;51.936;4.788;2023-02-28T00:16:18;5.60;;;2.90;;
47219;SDS011;32961;51.936;4.788;2023-02-28T00:18:47;4.25;;;2.40;;
47219;SDS011;32961;51.936;4.788;2023-02-28T00:21:16;7.07;;;3.35;;
47219;SDS011;32961;51.936;4.788;2023-02-28T00:23:46;6.38;;;3.40;;
47219;SDS011;32961;51.936;4.788;2023-02-28T00:26:14;7.53;;;3.55;;
47219;SDS011;32961;51.936;4.788;2023-02-28T00:28:41;10.32;;;3.50;;
47219;SDS011;32961;51.936;4.788;2023-02-28T00:31:09;5.45;;;2.63;;
47219;SDS011;32961;51.936;4.788;2023-02-28T00:33:37;9.27;;;3.97;;
47219;SDS011;32961;51.936;4.788;2023-02-28T00:36:06;8.40;;;3.17;;
47219;SDS011;32961;51.936;4.788;2023-02-28T00:38:35;5.45;;;2.85;;
47219;SDS011;32961;51.936;4.788;2023-02-28T00:41:04;9.80;;;3.08;;
47219;SDS011;32961;51.936;4.788;2023-02-28T00:43:33;7.72;;;2.63;;
47219;SDS011;32961;51.936;4.788;2023-02-28T00:46:02;5.35;;;2.38;;
47219;SDS011;32961;51.936;4.788;2023-02-28T00:48:31;5.18;;;2.55;;
47219;SDS011;32961;51.936;4.788;2023-02-28T00:50:59;6.15;;;2.60;;
47219;SDS011;32961;51.936;4.788;2023-02-28T00:53:27;6.95;;;2.50;;
47219;SDS011;32961;51.936;4.788;2023-02-28T00:55:55;9.30;;;2.83;;
47219;SDS011;32961;51.936;4.788;2023-02-28T00:58:24;4.25;;;2.35;;
47219;SDS011;32961;51.936;4.788;2023-02-28T01:00:52;8.30;;;2.50;;
47219;SDS011;32961;51.936;4.788;2023-02-28T01:03:20;5.80;;;2.60;;
47219;SDS011;32961;51.936;4.788;2023-02-28T01:05:49;5.32;;;2.80;;
47219;SDS011;32961;51.936;4.788;2023-02-28T01:08:19;7.38;;;2.55;;
47219;SDS011;32961;51.936;4.788;2023-02-28T01:10:47;6.32;;;2.53;;
47219;SDS011;32961;51.936;4.788;2023-02-28T01:13:15;6.55;;;2.22;;
47219;SDS011;32961;51.936;4.788;2023-02-28T01:15:46;7.53;;;2.63;;
47219;SDS011;32961;51.936;4.788;2023-02-28T01:18:18;5.10;;;2.75;;
47219;SDS011;32961;51.936;4.788;2023-02-28T01:20:46;8.60;;;3.17;;
47219;SDS011;32961;51.936;4.788;2023-02-28T01:23:15;6.75;;;2.70;;
47219;SDS011;32961;51.936;4.788;2023-02-28T01:25:42;7.78;;;2.97;;
47219;SDS011;32961;51.936;4.788;2023-02-28T01:28:10;9.85;;;3.10;;
47219;SDS011;32961;51.936;4.788;2023-02-28T01:30:38;6.95;;;3.08;;
47219;SDS011;32961;51.936;4.788;2023-02-28T01:33:07;7.13;;;3.35;;
47219;SDS011;32961;51.936;4.788;2023-02-28T01:35:35;7.50;;;3.25;;
47219;SDS011;32961;51.936;4.788;2023-02-28T01:38:03;6.40;;;3.20;;
47219;SDS011;32961;51.936;4.788;2023-02-28T01:40:46;6.27;;;3.10;;
47219;SDS011;32961;51.936;4.788;2023-02-28T01:43:17;9.48;;;3.03;;
47219;SDS011;32961;51.936;4.788;2023-02-28T01:45:48;7.75;;;3.65;;
47219;SDS011;32961;51.936;4.788;2023-02-28T01:48:18;7.38;;;2.90;;
47219;SDS011;32961;51.936;4.788;2023-02-28T01:50:47;9.80;;;3.15;;
47219;SDS011;32961;51.936;4.788;2023-02-28T01:53:16;6.80;;;2.72;;
47219;SDS011;32961;51.936;4.788;2023-02-28T01:55:48;7.97;;;3.90;;
47219;SDS011;32961;51.936;4.788;2023-02-28T01:58:20;6.45;;;3.17;;
47219;SDS011;32961;51.936;4.788;2023-02-28T02:00:48;8.40;;;2.67;;
47219;SDS011;32961;51.936;4.788;2023-02-28T02:03:18;10.80;;;3.35;;
47219;SDS011;32961;51.936;4.788;2023-02-28T02:05:47;10.45;;;3.53;;
47219;SDS011;32961;51.936;4.788;2023-02-28T02:08:16;5.60;;;2.80;;
47219;SDS011;32961;51.936;4.788;2023-02-28T02:10:46;5.55;;;2.90;;
47219;SDS011;32961;51.936;4.788;2023-02-28T02:13:20;8.02;;;2.92;;
47219;SDS011;32961;51.936;4.788;2023-02-28T02:16:00;7.70;;;3.00;;
47219;SDS011;32961;51.936;4.788;2023-02-28T02:18:37;7.07;;;2.90;;
47219;SDS011;32961;51.936;4.788;2023-02-28T02:21:15;8.65;;;3.03;;
47219;SDS011;32961;51.936;4.788;2023-02-28T02:24:04;7.50;;;2.78;;
47219;SDS011;32961;51.936;4.788;2023-02-28T02:29:54;5.68;;;2.58;;
47219;SDS011;32961;51.936;4.788;2023-02-28T02:32:47;5.63;;;2.72;;
47219;SDS011;32961;51.936;4.788;2023-02-28T02:35:39;5.80;;;2.85;;
47219;SDS011;32961;51.936;4.788;2023-02-28T02:38:15;9.55;;;4.18;;
47219;SDS011;32961;51.936;4.788;2023-02-28T02:40:54;7.47;;;2.60;;
47219;SDS011;32961;51.936;4.788;2023-02-28T02:43:29;6.07;;;2.72;;
47219;SDS011;32961;51.936;4.788;2023-02-28T02:46:01;8.60;;;2.88;;
47219;SDS011;32961;51.936;4.788;2023-02-28T02:48:34;8.23;;;2.67;;
47219;SDS011;32961;51.936;4.788;2023-02-28T02:51:06;6.22;;;2.95;;
47219;SDS011;32961;51.936;4.788;2023-02-28T02:53:40;3.97;;;2.70;;
47219;SDS011;32961;51.936;4.788;2023-02-28T02:56:13;8.88;;;3.30;;
47219;SDS011;32961;51.936;4.788;2023-02-28T02:58:42;6.72;;;3.03;;
47219;SDS011;32961;51.936;4.788;2023-02-28T03:01:12;6.82;;;2.72;;
47219;SDS011;32961;51.936;4.788;2023-02-28T03:03:55;9.00;;;3.25;;
47219;SDS011;32961;51.936;4.788;2023-02-28T03:06:26;7.90;;;3.25;;
47219;SDS011;32961;51.936;4.788;2023-02-28T03:08:54;8.80;;;3.00;;
47219;SDS011;32961;51.936;4.788;2023-02-28T03:11:21;6.90;;;3.25;;
47219;SDS011;32961;51.936;4.788;2023-02-28T03:14:10;7.82;;;3.30;;
47219;SDS011;32961;51.936;4.788;2023-02-28T03:16:53;7.30;;;3.63;;
47219;SDS011;32961;51.936;4.788;2023-02-28T03:19:43;10.30;;;3.50;;
47219;SDS011;32961;51.936;4.788;2023-02-28T03:22:24;6.65;;;3.53;;
47219;SDS011;32961;51.936;4.788;2023-02-28T03:25:07;10.20;;;3.65;;
47219;SDS011;32961;51.936;4.788;2023-02-28T03:27:41;8.88;;;3.40;;
47219;SDS011;32961;51.936;4.788;2023-02-28T03:30:17;7.20;;;3.35;;
47219;SDS011;32961;51.936;4.788;2023-02-28T03:32:53;8.00;;;3.25;;
47219;SDS011;32961;51.936;4.788;2023-02-28T03:35:24;7.85;;;3.70;;
47219;SDS011;32961;51.936;4.788;2023-02-28T03:37:58;10.90;;;3.25;;
47219;SDS011;32961;51.936;4.788;2023-02-28T03:40:32;6.95;;;3.13;;
47219;SDS011;32961;51.936;4.788;2023-02-28T03:43:03;4.80;;;2.90;;
47219;SDS011;32961;51.936;4.788;2023-02-28T03:45:37;7.85;;;3.70;;
47219;SDS011;32961;51.936;4.788;2023-02-28T03:48:07;8.07;;;3.08;;
47219;SDS011;32961;51.936;4.788;2023-02-28T03:53:11;13.73;;;4.60;;
47219;SDS011;32961;51.936;4.788;2023-02-28T03:58:14;10.32;;;3.50;;
47219;SDS011;32961;51.936;4.788;2023-02-28T04:00:49;8.15;;;3.58;;
47219;SDS011;32961;51.936;4.788;2023-02-28T04:03:22;5.53;;;3.28;;
47219;SDS011;32961;51.936;4.788;2023-02-28T04:05:51;10.57;;;3.55;;
47219;SDS011;32961;51.936;4.788;2023-02-28T04:08:22;10.20;;;3.38;;
47219;SDS011;32961;51.936;4.788;2023-02-28T04:10:51;8.73;;;3.20;;
47219;SDS011;32961;51.936;4.788;2023-02-28T04:13:23;11.05;;;3.85;;
47219;SDS011;32961;51.936;4.788;2023-02-28T04:15:51;5.53;;;3.15;;
47219;SDS011;32961;51.936;4.788;2023-02-28T04:18:19;7.43;;;3.10;;
47219;SDS011;32961;51.936;4.788;2023-02-28T04:20:47;8.93;;;3.60;;
47219;SDS011;32961;51.936;4.788;2023-02-28T04:23:14;5.53;;;2.88;;
47219;SDS011;32961;51.936;4.788;2023-02-28T04:25:43;10.98;;;3.60;;
47219;SDS011;32961;51.936;4.788;2023-02-28T04:28:11;7.32;;;3.15;;
47219;SDS011;32961;51.936;4.788;2023-02-28T04:30:39;8.18;;;3.63;;
47219;SDS011;32961;51.936;4.788;2023-02-28T04:33:07;7.18;;;3.60;;
47219;SDS011;32961;51.936;4.788;2023-02-28T04:35:35;7.50;;;3.72;;
47219;SDS011;32961;51.936;4.788;2023-02-28T04:38:02;8.68;;;3.20;;
47219;SDS011;32961;51.936;4.788;2023-02-28T04:40:30;8.85;;;3.70;;
47219;SDS011;32961;51.936;4.788;2023-02-28T04:42:59;14.38;;;4.13;;
47219;SDS011;32961;51.936;4.788;2023-02-28T04:45:27;7.78;;;3.35;;
47219;SDS011;32961;51.936;4.788;2023-02-28T04:47:56;8.25;;;3.35;;
47219;SDS011;32961;51.936;4.788;2023-02-28T04:50:24;9.15;;;3.40;;
47219;SDS011;32961;51.936;4.788;2023-02-28T04:52:51;6.50;;;3.92;;
47219;SDS011;32961;51.936;4.788;2023-02-28T04:55:20;9.88;;;3.83;;
47219;SDS011;32961;51.936;4.788;2023-02-28T04:57:48;12.57;;;3.97;;
47219;SDS011;32961;51.936;4.788;2023-02-28T05:00:17;8.65;;;3.90;;
47219;SDS011;32961;51.936;4.788;2023-02-28T05:02:45;10.27;;;3.60;;
47219;SDS011;32961;51.936;4.788;2023-02-28T05:05:13;9.20;;;3.55;;
47219;SDS011;32961;51.936;4.788;2023-02-28T05:07:44;7.68;;;3.50;;
47219;SDS011;32961;51.936;4.788;2023-02-28T05:10:12;9.60;;;3.95;;
47219;SDS011;32961;51.936;4.788;2023-02-28T05:12:40;6.68;;;3.13;;
47219;SDS011;32961;51.936;4.788;2023-02-28T05:15:08;5.80;;;3.10;;
47219;SDS011;32961;51.936;4.788;2023-02-28T05:17:41;9.13;;;4.10;;
47219;SDS011;32961;51.936;4.788;2023-02-28T05:20:10;5.10;;;3.17;;
47219;SDS011;32961;51.936;4.788;2023-02-28T05:22:41;10.43;;;4.50;;
47219;SDS011;32961;51.936;4.788;2023-02-28T05:25:10;9.25;;;4.82;;
47219;SDS011;32961;51.936;4.788;2023-02-28T05:27:41;7.07;;;3.50;;
47219;SDS011;32961;51.936;4.788;2023-02-28T05:30:09;8.70;;;3.60;;
47219;SDS011;32961;51.936;4.788;2023-02-28T05:32:38;9.18;;;3.47;;
47219;SDS011;32961;51.936;4.788;2023-02-28T05:35:10;5.47;;;3.00;;
47219;SDS011;32961;51.936;4.788;2023-02-28T05:37:39;5.05;;;2.80;;
47219;SDS011;32961;51.936;4.788;2023-02-28T05:40:07;7.10;;;3.05;;
47219;SDS011;32961;51.936;4.788;2023-02-28T05:42:36;5.78;;;2.83;;
47219;SDS011;32961;51.936;4.788;2023-02-28T05:45:05;6.93;;;3.33;;
47219;SDS011;32961;51.936;4.788;2023-02-28T05:47:34;6.85;;;2.75;;
47219;SDS011;32961;51.936;4.788;2023-02-28T05:50:03;7.00;;;2.80;;
47219;SDS011;32961;51.936;4.788;2023-02-28T05:52:33;5.13;;;2.83;;
47219;SDS011;32961;51.936;4.788;2023-02-28T05:55:00;5.10;;;2.80;;
47219;SDS011;32961;51.936;4.788;2023-02-28T05:57:28;7.20;;;2.85;;
47219;SDS011;32961;51.936;4.788;2023-02-28T05:59:56;3.88;;;2.53;;
47219;SDS011;32961;51.936;4.788;2023-02-28T06:02:24;4.93;;;2.90;;
47219;SDS011;32961;51.936;4.788;2023-02-28T06:04:52;7.65;;;3.90;;
47219;SDS011;32961;51.936;4.788;2023-02-28T06:07:20;4.38;;;2.58;;
47219;SDS011;32961;51.936;4.788;2023-02-28T06:09:50;6.60;;;3.22;;
47219;SDS011;32961;51.936;4.788;2023-02-28T06:12:17;9.25;;;3.10;;
47219;SDS011;32961;51.936;4.788;2023-02-28T06:14:45;6.22;;;2.80;;
47219;SDS011;32961;51.936;4.788;2023-02-28T06:17:13;6.60;;;2.88;;
47219;SDS011;32961;51.936;4.788;2023-02-28T06:19:41;5.72;;;3.00;;
47219;SDS011;32961;51.936;4.788;2023-02-28T06:22:09;8.48;;;3.50;;
47219;SDS011;32961;51.936;4.788;2023-02-28T06:24:37;7.45;;;3.88;;
47219;SDS011;32961;51.936;4.788;2023-02-28T06:27:06;4.75;;;2.92;;
47219;SDS011;32961;51.936;4.788;2023-02-28T06:29:34;8.13;;;2.72;;
47219;SDS011;32961;51.936;4.788;2023-02-28T06:32:02;6.85;;;3.08;;
47219;SDS011;32961;51.936;4.788;2023-02-28T06:34:30;10.38;;;3.58;;
47219;SDS011;32961;51.936;4.788;2023-02-28T06:36:59;7.22;;;3.55;;
47219;SDS011;32961;51.936;4.788;2023-02-28T06:39:28;6.00;;;3.45;;
47219;SDS011;32961;51.936;4.788;2023-02-28T06:41:56;9.55;;;3.85;;
47219;SDS011;32961;51.936;4.788;2023-02-28T06:44:26;8.80;;;3.20;;
47219;SDS011;32961;51.936;4.788;2023-02-28T06:46:59;5.43;;;3.33;;
47219;SDS011;32961;51.936;4.788;2023-02-28T06:49:28;9.23;;;2.95;;
47219;SDS011;32961;51.936;4.788;2023-02-28T06:51:55;8.05;;;3.08;;
47219;SDS011;32961;51.936;4.788;2023-02-28T06:54:23;6.82;;;3.15;;
47219;SDS011;32961;51.936;4.788;2023-02-28T06:56:52;4.68;;;3.20;;
47219;SDS011;32961;51.936;4.788;2023-02-28T06:59:20;6.72;;;3.22;;
47219;SDS011;32961;51.936;4.788;2023-02-28T07:01:49;6.68;;;3.17;;
47219;SDS011;32961;51.936;4.788;2023-02-28T07:04:18;4.38;;;3.28;;
47219;SDS011;32961;51.936;4.788;2023-02-28T07:06:46;7.25;;;3.75;;
47219;SDS011;32961;51.936;4.788;2023-02-28T07:09:13;11.82;;;3.25;;
47219;SDS011;32961;51.936;4.788;2023-02-28T07:11:41;11.15;;;3.45;;
47219;SDS011;32961;51.936;4.788;2023-02-28T07:14:10;7.63;;;3.30;;
47219;SDS011;32961;51.936;4.788;2023-02-28T07:16:37;7.22;;;2.63;;
47219;SDS011;32961;51.936;4.788;2023-02-28T07:19:07;5.53;;;3.17;;
47219;SDS011;32961;51.936;4.788;2023-02-28T07:21:34;13.10;;;3.75;;
47219;SDS011;32961;51.936;4.788;2023-02-28T07:24:02;8.38;;;3.33;;
47219;SDS011;32961;51.936;4.788;2023-02-28T07:26:30;5.13;;;3.22;;
47219;SDS011;32961;51.936;4.788;2023-02-28T07:29:00;6.70;;;3.22;;
47219;SDS011;32961;51.936;4.788;2023-02-28T07:31:28;4.53;;;3.35;;
47219;SDS011;32961;51.936;4.788;2023-02-28T07:33:56;6.75;;;3.42;;
47219;SDS011;32961;51.936;4.788;2023-02-28T07:36:26;8.30;;;4.28;;
47219;SDS011;32961;51.936;4.788;2023-02-28T07:38:53;7.57;;;3.90;;
47219;SDS011;32961;51.936;4.788;2023-02-28T07:41:21;6.72;;;3.92;;
47219;SDS011;32961;51.936;4.788;2023-02-28T07:43:54;13.25;;;3.55;;
47219;SDS011;32961;51.936;4.788;2023-02-28T07:46:23;9.30;;;3.50;;
47219;SDS011;32961;51.936;4.788;2023-02-28T07:48:53;7.70;;;3.85;;
47219;SDS011;32961;51.936;4.788;2023-02-28T07:51:21;12.25;;;4.57;;
47219;SDS011;32961;51.936;4.788;2023-02-28T07:53:51;5.13;;;3.05;;
47219;SDS011;32961;51.936;4.788;2023-02-28T07:56:18;9.60;;;5.10;;
47219;SDS011;32961;51.936;4.788;2023-02-28T07:58:46;6.90;;;4.28;;
47219;SDS011;32961;51.936;4.788;2023-02-28T08:01:14;7.28;;;4.43;;
47219;SDS011;32961;51.936;4.788;2023-02-28T08:03:42;6.22;;;3.33;;
47219;SDS011;32961;51.936;4.788;2023-02-28T08:06:14;11.57;;;3.92;;
47219;SDS011;32961;51.936;4.788;2023-02-28T08:08:43;6.95;;;3.47;;
47219;SDS011;32961;51.936;4.788;2023-02-28T08:11:13;7.63;;;3.55;;
47219;SDS011;32961;51.936;4.788;2023-02-28T08:13:41;6.38;;;3.67;;
47219;SDS011;32961;51.936;4.788;2023-02-28T08:16:10;9.57;;;3.75;;
47219;SDS011;32961;51.936;4.788;2023-02-28T08:18:41;5.63;;;3.60;;
47219;SDS011;32961;51.936;4.788;2023-02-28T08:21:09;4.45;;;3.60;;
47219;SDS011;32961;51.936;4.788;2023-02-28T08:23:37;6.57;;;3.67;;
47219;SDS011;32961;51.936;4.788;2023-02-28T08:26:06;6.57;;;3.50;;
47219;SDS011;32961;51.936;4.788;2023-02-28T08:28:35;5.97;;;3.75;;
47219;SDS011;32961;51.936;4.788;2023-02-28T08:31:06;6.82;;;3.88;;
47219;SDS011;32961;51.936;4.788;2023-02-28T08:33:36;11.00;;;3.67;;
47219;SDS011;32961;51.936;4.788;2023-02-28T08:36:05;9.13;;;3.58;;
47219;SDS011;32961;51.936;4.788;2023-02-28T08:38:34;8.82;;;4.80;;
47219;SDS011;32961;51.936;4.788;2023-02-28T08:41:02;8.80;;;3.90;;
47219;SDS011;32961;51.936;4.788;2023-02-28T08:43:32;10.68;;;4.00;;
47219;SDS011;32961;51.936;4.788;2023-02-28T08:46:01;10.70;;;4.45;;
47219;SDS011;32961;51.936;4.788;2023-02-28T08:48:30;8.40;;;3.83;;
47219;SDS011;32961;51.936;4.788;2023-02-28T08:51:00;9.75;;;3.65;;
47219;SDS011;32961;51.936;4.788;2023-02-28T08:56:02;7.32;;;3.42;;
47219;SDS011;32961;51.936;4.788;2023-02-28T08:58:32;6.80;;;3.45;;
47219;SDS011;32961;51.936;4.788;2023-02-28T09:01:06;6.68;;;4.25;;
47219;SDS011;32961;51.936;4.788;2023-02-28T09:03:35;8.77;;;4.30;;
47219;SDS011;32961;51.936;4.788;2023-02-28T09:06:03;7.97;;;3.92;;
47219;SDS011;32961;51.936;4.788;2023-02-28T09:08:32;8.50;;;4.38;;
47219;SDS011;32961;51.936;4.788;2023-02-28T09:11:00;8.02;;;4.03;;
47219;SDS011;32961;51.936;4.788;2023-02-28T09:13:29;12.82;;;4.88;;
47219;SDS011;32961;51.936;4.788;2023-02-28T09:15:58;9.45;;;4.75;;
47219;SDS011;32961;51.936;4.788;2023-02-28T09:18:28;12.68;;;4.55;;
47219;SDS011;32961;51.936;4.788;2023-02-28T09:20:56;7.32;;;4.43;;
47219;SDS011;32961;51.936;4.788;2023-02-28T09:23:24;10.27;;;4.63;;
47219;SDS011;32961;51.936;4.788;2023-02-28T09:25:53;7.68;;;4.43;;
47219;SDS011;32961;51.936;4.788;2023-02-28T09:28:22;8.60;;;4.30;;
47219;SDS011;32961;51.936;4.788;2023-02-28T09:30:50;9.30;;;5.32;;
47219;SDS011;32961;51.936;4.788;2023-02-28T09:33:19;7.70;;;4.63;;
47219;SDS011;32961;51.936;4.788;2023-02-28T09:35:49;10.25;;;4.35;;
47219;SDS011;32961;51.936;4.788;2023-02-28T09:38:18;10.45;;;4.65;;
47219;SDS011;32961;51.936;4.788;2023-02-28T09:40:47;8.40;;;4.32;;
47219;SDS011;32961;51.936;4.788;2023-02-28T09:43:18;8.90;;;4.22;;
47219;SDS011;32961;51.936;4.788;2023-02-28T09:45:50;7.72;;;3.97;;
47219;SDS011;32961;51.936;4.788;2023-02-28T09:48:26;11.32;;;4.20;;
47219;SDS011;32961;51.936;4.788;2023-02-28T09:50:59;7.13;;;4.13;;
47219;SDS011;32961;51.936;4.788;2023-02-28T09:53:30;4.15;;;3.53;;
47219;SDS011;32961;51.936;4.788;2023-02-28T09:56:01;8.93;;;4.00;;
47219;SDS011;32961;51.936;4.788;2023-02-28T09:58:33;9.82;;;4.78;;
47219;SDS011;32961;51.936;4.788;2023-02-28T10:01:09;9.77;;;3.22;;
47219;SDS011;32961;51.936;4.788;2023-02-28T10:03:47;5.38;;;2.33;;
47219;SDS011;32961;51.936;4.788;2023-02-28T10:06:28;6.30;;;2.60;;
47219;SDS011;32961;51.936;4.788;2023-02-28T10:09:01;4.20;;;2.38;;
47219;SDS011;32961;51.936;4.788;2023-02-28T10:11:32;4.65;;;2.38;;
47219;SDS011;32961;51.936;4.788;2023-02-28T10:14:04;4.72;;;2.35;;
47219;SDS011;32961;51.936;4.788;2023-02-28T10:16:38;3.10;;;2.10;;
47219;SDS011;32961;51.936;4.788;2023-02-28T10:19:13;5.43;;;2.33;;
47219;SDS011;32961;51.936;4.788;2023-02-28T10:21:46;3.92;;;1.92;;
47219;SDS011;32961;51.936;4.788;2023-02-28T10:24:19;7.15;;;2.10;;
47219;SDS011;32961;51.936;4.788;2023-02-28T10:26:50;4.93;;;2.28;;
47219;SDS011;32961;51.936;4.788;2023-02-28T10:29:21;2.80;;;1.80;;
47219;SDS011;32961;51.936;4.788;2023-02-28T10:31:48;3.95;;;1.70;;
47219;SDS011;32961;51.936;4.788;2023-02-28T10:34:16;1.63;;;1.40;;
47219;SDS011;32961;51.936;4.788;2023-02-28T10:36:46;4.35;;;1.80;;
47219;SDS011;32961;51.936;4.788;2023-02-28T10:39:35;2.75;;;1.30;;
47219;SDS011;32961;51.936;4.788;2023-02-28T10:42:05;2.45;;;1.70;;
47219;SDS011;32961;51.936;4.788;2023-02-28T10:44:47;1.52;;;1.30;;
47219;SDS011;32961;51.936;4.788;2023-02-28T10:47:15;2.47;;;1.45;;
47219;SDS011;32961;51.936;4.788;2023-02-28T10:49:48;2.95;;;1.58;;
47219;SDS011;32961;51.936;4.788;2023-02-28T10:52:33;2.83;;;1.85;;
47219;SDS011;32961;51.936;4.788;2023-02-28T10:55:14;2.55;;;1.52;;
47219;SDS011;32961;51.936;4.788;2023-02-28T10:57:46;3.08;;;1.70;;
47219;SDS011;32961;51.936;4.788;2023-02-28T11:00:15;2.97;;;1.45;;
47219;SDS011;32961;51.936;4.788;2023-02-28T11:02:45;4.32;;;2.05;;
47219;SDS011;32961;51.936;4.788;2023-02-28T11:05:22;5.68;;;2.47;;
47219;SDS011;32961;51.936;4.788;2023-02-28T11:07:53;3.53;;;1.83;;
47219;SDS011;32961;51.936;4.788;2023-02-28T11:10:24;5.05;;;2.75;;
47219;SDS011;32961;51.936;4.788;2023-02-28T11:12:56;3.92;;;1.83;;
47219;SDS011;32961;51.936;4.788;2023-02-28T11:15:27;1.63;;;1.40;;
47219;SDS011;32961;51.936;4.788;2023-02-28T11:17:56;2.47;;;1.70;;
47219;SDS011;32961;51.936;4.788;2023-02-28T11:20:26;1.92;;;1.58;;
47219;SDS011;32961;51.936;4.788;2023-02-28T11:22:58;1.98;;;1.60;;
47219;SDS011;32961;51.936;4.788;2023-02-28T11:25:30;3.33;;;1.80;;
47219;SDS011;32961;51.936;4.788;2023-02-28T11:28:01;2.25;;;1.50;;
47219;SDS011;32961;51.936;4.788;2023-02-28T11:30:34;2.65;;;1.77;;
47219;SDS011;32961;51.936;4.788;2023-02-28T11:33:18;2.47;;;1.70;;
47219;SDS011;32961;51.936;4.788;2023-02-28T11:35:50;4.80;;;1.83;;
47219;SDS011;32961;51.936;4.788;2023-02-28T11:38:21;2.80;;;1.48;;
47219;SDS011;32961;51.936;4.788;2023-02-28T11:40:51;3.25;;;1.83;;
47219;SDS011;32961;51.936;4.788;2023-02-28T11:43:35;3.25;;;1.50;;
47219;SDS011;32961;51.936;4.788;2023-02-28T11:46:18;2.13;;;1.70;;
47219;SDS011;32961;51.936;4.788;2023-02-28T11:48:55;4.85;;;1.70;;
47219;SDS011;32961;51.936;4.788;2023-02-28T11:51:32;2.13;;;1.83;;
47219;SDS011;32961;51.936;4.788;2023-02-28T11:54:11;5.70;;;1.70;;
47219;SDS011;32961;51.936;4.788;2023-02-28T11:56:55;4.88;;;1.70;;
47219;SDS011;32961;51.936;4.788;2023-02-28T12:02:23;2.40;;;1.58;;
47219;SDS011;32961;51.936;4.788;2023-02-28T12:05:08;2.85;;;1.80;;
47219;SDS011;32961;51.936;4.788;2023-02-28T12:07:47;3.38;;;1.77;;
47219;SDS011;32961;51.936;4.788;2023-02-28T12:10:27;3.78;;;1.88;;
47219;SDS011;32961;51.936;4.788;2023-02-28T12:13:00;2.22;;;1.52;;
47219;SDS011;32961;51.936;4.788;2023-02-28T12:15:46;2.63;;;1.40;;
47219;SDS011;32961;51.936;4.788;2023-02-28T12:21:21;2.85;;;1.60;;
47219;SDS011;32961;51.936;4.788;2023-02-28T12:24:04;3.92;;;1.70;;
47219;SDS011;32961;51.936;4.788;2023-02-28T12:26:46;2.38;;;1.80;;
47219;SDS011;32961;51.936;4.788;2023-02-28T12:29:16;2.58;;;1.52;;
47219;SDS011;32961;51.936;4.788;2023-02-28T12:31:49;3.78;;;1.92;;
47219;SDS011;32961;51.936;4.788;2023-02-28T12:34:21;1.75;;;1.60;;
47219;SDS011;32961;51.936;4.788;2023-02-28T12:36:53;3.95;;;1.83;;
47219;SDS011;32961;51.936;4.788;2023-02-28T12:39:26;2.85;;;1.67;;
47219;SDS011;32961;51.936;4.788;2023-02-28T12:42:07;2.83;;;1.83;;
47219;SDS011;32961;51.936;4.788;2023-02-28T12:44:42;3.38;;;1.67;;
47219;SDS011;32961;51.936;4.788;2023-02-28T12:47:14;5.05;;;2.40;;
47219;SDS011;32961;51.936;4.788;2023-02-28T12:49:45;2.25;;;1.90;;
47219;SDS011;32961;51.936;4.788;2023-02-28T12:52:17;2.00;;;1.60;;
47219;SDS011;32961;51.936;4.788;2023-02-28T12:54:51;3.25;;;1.70;;
47219;SDS011;32961;51.936;4.788;2023-02-28T12:57:27;2.17;;;1.63;;
47219;SDS011;32961;51.936;4.788;2023-02-28T13:00:03;4.63;;;1.60;;
47219;SDS011;32961;51.936;4.788;2023-02-28T13:02:45;3.20;;;1.80;;
47219;SDS011;32961;51.936;4.788;2023-02-28T13:11:31;2.20;;;1.40;;
47219;SDS011;32961;51.936;4.788;2023-02-28T13:14:03;2.35;;;1.70;;
47219;SDS011;32961;51.936;4.788;2023-02-28T13:19:26;3.35;;;1.63;;
47219;SDS011;32961;51.936;4.788;2023-02-28T13:21:55;3.83;;;2.05;;
47219;SDS011;32961;51.936;4.788;2023-02-28T13:24:36;4.20;;;1.83;;
47219;SDS011;32961;51.936;4.788;2023-02-28T13:33:28;1.50;;;1.40;;
47219;SDS011;32961;51.936;4.788;2023-02-28T13:38:55;2.97;;;1.95;;
47219;SDS011;32961;51.936;4.788;2023-02-28T13:41:45;3.28;;;1.77;;
47219;SDS011;32961;51.936;4.788;2023-02-28T13:44:15;3.30;;;1.92;;
47219;SDS011;32961;51.936;4.788;2023-02-28T13:55:57;4.57;;;1.88;;
47219;SDS011;32961;51.936;4.788;2023-02-28T13:58:41;2.97;;;2.00;;
47219;SDS011;32961;51.936;4.788;2023-02-28T14:01:22;2.65;;;1.80;;
47219;SDS011;32961;51.936;4.788;2023-02-28T14:07:08;3.85;;;2.00;;
47219;SDS011;32961;51.936;4.788;2023-02-28T14:09:45;2.90;;;1.60;;
47219;SDS011;32961;51.936;4.788;2023-02-28T14:15:28;3.67;;;1.73;;
47219;SDS011;32961;51.936;4.788;2023-02-28T14:18:06;3.08;;;2.10;;
47219;SDS011;32961;51.936;4.788;2023-02-28T14:20:53;1.58;;;1.40;;
47219;SDS011;32961;51.936;4.788;2023-02-28T14:23:34;4.25;;;2.22;;
47219;SDS011;32961;51.936;4.788;2023-02-28T14:26:13;3.90;;;1.67;;
47219;SDS011;32961;51.936;4.788;2023-02-28T14:29:01;4.05;;;1.90;;
47219;SDS011;32961;51.936;4.788;2023-02-28T14:31:43;3.03;;;1.40;;
47219;SDS011;32961;51.936;4.788;2023-02-28T14:34:20;2.67;;;1.73;;
47219;SDS011;32961;51.936;4.788;2023-02-28T14:37:00;3.30;;;2.13;;
47219;SDS011;32961;51.936;4.788;2023-02-28T14:39:31;6.22;;;2.60;;
47219;SDS011;32961;51.936;4.788;2023-02-28T14:41:59;2.75;;;1.75;;
47219;SDS011;32961;51.936;4.788;2023-02-28T14:44:31;2.70;;;1.70;;
47219;SDS011;32961;51.936;4.788;2023-02-28T14:46:59;4.93;;;2.17;;
47219;SDS011;32961;51.936;4.788;2023-02-28T14:49:32;4.30;;;2.33;;
47219;SDS011;32961;51.936;4.788;2023-02-28T14:52:07;2.53;;;1.92;;
47219;SDS011;32961;51.936;4.788;2023-02-28T14:54:43;2.97;;;1.60;;
47219;SDS011;32961;51.936;4.788;2023-02-28T14:57:20;2.92;;;1.63;;
47219;SDS011;32961;51.936;4.788;2023-02-28T14:59:56;3.67;;;2.28;;
47219;SDS011;32961;51.936;4.788;2023-02-28T15:02:26;3.42;;;2.10;;
47219;SDS011;32961;51.936;4.788;2023-02-28T15:04:59;3.63;;;2.05;;
47219;SDS011;32961;51.936;4.788;2023-02-28T15:07:28;4.25;;;2.70;;
47219;SDS011;32961;51.936;4.788;2023-02-28T15:10:15;3.45;;;1.90;;
47219;SDS011;32961;51.936;4.788;2023-02-28T15:12:48;2.35;;;1.95;;
47219;SDS011;32961;51.936;4.788;2023-02-28T15:15:20;3.53;;;2.30;;
47219;SDS011;32961;51.936;4.788;2023-02-28T15:18:05;8.52;;;1.98;;
47219;SDS011;32961;51.936;4.788;2023-02-28T15:20:38;4.18;;;2.05;;
47219;SDS011;32961;51.936;4.788;2023-02-28T15:23:07;4.60;;;2.25;;
47219;SDS011;32961;51.936;4.788;2023-02-28T15:25:37;2.63;;;1.73;;
47219;SDS011;32961;51.936;4.788;2023-02-28T15:28:09;4.45;;;2.15;;
47219;SDS011;32961;51.936;4.788;2023-02-28T15:30:50;2.88;;;1.95;;
47219;SDS011;32961;51.936;4.788;2023-02-28T15:33:23;3.25;;;2.03;;
47219;SDS011;32961;51.936;4.788;2023-02-28T15:36:03;3.92;;;2.15;;
47219;SDS011;32961;51.936;4.788;2023-02-28T15:38:33;3.22;;;2.08;;
47219;SDS011;32961;51.936;4.788;2023-02-28T15:41:04;3.10;;;1.98;;
47219;SDS011;32961;51.936;4.788;2023-02-28T15:43:36;2.92;;;1.55;;
47219;SDS011;32961;51.936;4.788;2023-02-28T15:46:06;3.53;;;2.05;;
47219;SDS011;32961;51.936;4.788;2023-02-28T15:48:36;3.55;;;1.58;;
47219;SDS011;32961;51.936;4.788;2023-02-28T15:53:44;5.18;;;3.08;;
47219;SDS011;32961;51.936;4.788;2023-02-28T15:56:21;6.90;;;2.10;;
47219;SDS011;32961;51.936;4.788;2023-02-28T15:58:53;4.60;;;2.33;;
47219;SDS011;32961;51.936;4.788;2023-02-28T16:01:23;2.83;;;2.05;;
47219;SDS011;32961;51.936;4.788;2023-02-28T16:03:55;3.85;;;2.00;;
47219;SDS011;32961;51.936;4.788;2023-02-28T16:06:32;5.05;;;1.80;;